Plovdiv, Bulgaria
Current Conditions -  °F | °C
As of 3:00 PM on Friday 24 Oct 2014 (Local Time) from LBPD Reporting Station
Broken Clouds Broken Clouds  
Wind Chill: 52°   Ceiling: 2200
Heat Index: 52°   Visibility: 6mi
Dew Point: 43°   Wind: 4mph
Humidity: 71%   Direction: NA
Pressure: 29.94"   Gusts: NA
Location:  42.15°N, 24.75°E
Report Text: LBPD 241200Z VRB02MPS 9999 BKN022 11/06 Q1014 NOSIG
Loading
Personal Weather Stations






























Interactive Weather Map
Tropical Storm Tracking
New forecast layout! Learn more

10-Day Weather Forecast

Advertisements
Track Severe Weather on mobile